Latest Weather Observations for Fortescue Dave Forrest

IDW60801

Issued at 8:02 am WST Sunday 1 March 2015 (issued every 30 minutes, with the page automatically refreshed every 10 minutes)

About weather observations | Map of weather stations | Latest weather observations for WA | Other Formats
Station Details ID: 505056 Name: FORTESCUE DAVE FORREST Lat: -22.29 Lon: 119.43 Height: 474.6 m
Data from the previous 72 hours. | See also: Recent months for locations in Western Australia
Date/Time
WST
Temp
°C
App
Temp
°C
Dew
Point
Rel
Hum
%
Delta-T
°C
Wind Press
QNH
hPa
Press
MSL
hPa
Rain
since 9 am
mm
Dir
 
Spd
km/h
Gust
km/h
Spd
kts
Gust
kts
01/08:00am 25.5 25.7 22.1 81 2.3 SE 24 32 13 17 1012.1 1008.6 0.6
01/07:30am 25.2 26.0 22.5 85 1.8 SE 22 30 12 16 1012.0 1008.1 0.6
01/07:00am 24.8 27.5 22.9 89 1.3 SE 13 19 7 10 1011.8 1007.9 0.6
01/06:30am 24.5 27.2 22.1 86 1.6 SE 11 17 6 9 1011.8 1007.9 0.6
01/06:00am 24.9 26.3 21.1 79 2.5 E 15 19 8 10 1011.8 1007.9 0.6
01/05:30am 25.2 27.1 20.5 75 3.1 SE 11 17 6 9 1011.1 1007.3 0.6
01/05:00am 25.0 27.9 20.6 76 2.9 SSE 6 7 3 4 1010.1 1006.2 0.6
01/04:30am 24.8 27.7 21.0 79 2.5 SE 7 7 4 4 1010.0 1006.1 0.6
01/04:00am 24.7 28.5 20.9 79 2.5 SSE 2 4 1 2 1009.8 1005.9 0.6
01/03:30am 24.7 27.8 21.0 80 2.5 S 6 7 3 4 1009.6 1005.7 0.6
01/03:00am 24.9 28.4 21.1 79 2.6 WSW 4 6 2 3 1009.3 1005.4 0.6
01/02:30am 24.9 27.2 21.4 81 2.4 WSW 11 17 6 9 1009.5 1005.6 0.6
01/02:00am 25.0 27.9 21.8 82 2.2 WSW 9 13 5 7 1009.2 1005.3 0.6
01/01:30am 25.1 27.4 22.0 83 2.1 WNW 13 19 7 10 1009.1 1005.2 0.6
01/01:00am 25.1 27.0 22.0 83 2.1 WNW 15 19 8 10 1009.7 1005.8 0.6
01/12:30am 25.5 27.3 21.8 80 2.5 NW 15 20 8 11 1009.9 1006.0 0.6
01/12:00am 25.2 27.5 22.1 83 2.1 WNW 13 22 7 12 1010.1 1006.2 0.6
 
Date/Time
WST
Temp
°C
App
Temp
°C
Dew
Point
Rel
Hum
%
Delta-T
°C
Wind Press
QNH
hPa
Press
MSL
hPa
Rain
since 9 am
mm
Dir
 
Spd
km/h
Gust
km/h
Spd
kts
Gust
kts
28/11:30pm 25.5 27.0 22.0 81 2.4 NNW 17 30 9 16 1010.3 1006.4 0.6
28/11:00pm 25.9 25.1 21.6 77 2.9 N 28 41 15 22 1010.5 1006.6 0.6
28/10:30pm 25.8 27.4 22.8 83 2.1 N 19 28 10 15 1010.6 1006.8 0.6
28/10:00pm 25.7 28.4 23.4 87 1.6 N 15 20 8 11 1009.9 1006.0 0.6
28/09:30pm 25.6 25.3 23.2 86 1.7 NNW 30 41 16 22 1009.4 1005.5 0.6
28/09:15pm 25.0 24.4 23.7 92 0.9 NNW 33 44 18 24 1010.0 1006.1 0.6
28/09:00pm 26.9 23.9 22.1 75 3.3 N 41 57 22 31 1010.1 1006.2 0.4
28/08:40pm 30.5 28.5 21.2 57 6.3 N 33 61 18 33 1009.1 1005.2 0.4
28/08:39pm 30.9 29.1 21.1 56 6.7 N 32 48 17 26 1009.2 1005.3 0.4
28/08:35pm 32.5 32.5 20.9 50 7.9 N 22 48 12 26 1008.8 1005.0 0.4
28/08:30pm 33.2 34.0 19.0 43 9.5 NNE 13 28 7 15 1008.6 1004.8 0.4
28/08:00pm 33.0 34.6 19.2 44 9.2 NNE 9 11 5 6 1008.3 1004.4 0.4
28/07:30pm 33.5 34.1 18.7 41 9.8 N 13 19 7 10 1007.3 1003.4 0.4
28/07:00pm 32.9 36.0 21.0 49 8.1 ENE 6 11 3 6 1007.1 1003.2 0.4
28/06:30pm 33.5 34.5 19.5 43 9.4 ENE 13 28 7 15 1006.6 1002.7 0.4
28/06:19pm 32.5 31.2 20.6 49 8.1 ENE 28 46 15 25 1006.5 1002.6 0.0
28/06:00pm 37.4 36.4 16.5 29 13.7 N 17 28 9 15 1006.0 1002.1 0.0
28/05:30pm 37.1 35.6 16.2 29 13.6 NNE 19 32 10 17 1005.7 1001.8 0.0
28/05:00pm 37.3 36.1 16.2 28 13.7 NNE 17 30 9 16 1005.7 1001.8 0.0
28/04:30pm 37.9 37.7 16.7 28 13.9 NNW 13 22 7 12 1005.7 1001.8 0.0
28/04:00pm 37.7 37.5 16.6 28 13.8 N 13 30 7 16 1006.0 1002.1 0.0
28/03:30pm 37.5 37.5 17.3 30 13.3 ENE 13 26 7 14 1006.6 1002.7 0.0
28/03:00pm 36.9 36.4 16.8 30 13.2 NNE 15 30 8 16 1006.8 1002.9 0.0
28/02:30pm 37.5 37.0 17.0 30 13.5 N 15 30 8 16 1007.3 1003.4 0.0
28/02:00pm 37.5 37.3 16.8 29 13.6 N 13 28 7 15 1007.7 1003.8 0.0
28/01:30pm 36.3 35.8 16.9 31 12.7 ENE 15 28 8 15 1008.2 1004.3 0.0
28/01:00pm 36.6 35.8 17.2 31 12.8 NNE 17 30 9 16 1008.7 1004.9 0.0
28/12:30pm 36.0 36.5 17.5 33 12.2 NNE 11 24 6 13 1009.3 1005.4 0.0
28/12:00pm 35.7 36.3 17.8 34 11.8 N 11 24 6 13 1009.7 1005.8 0.0
28/11:30am 35.5 36.5 17.7 35 11.7 N 9 26 5 14 1010.2 1006.3 0.0
28/11:00am 35.1 37.0 18.5 37 11.1 SW 6 15 3 8 1010.5 1006.6 0.0
28/10:30am 33.4 34.8 18.6 41 9.8 NW 9 19 5 10 1010.8 1007.0 0.0
28/10:00am 32.8 35.0 19.1 44 9.1 WSW 6 13 3 7 1011.1 1007.3 0.0
28/09:30am 31.9 33.3 19.5 47 8.3 WSW 11 19 6 10 1011.1 1007.3 0.0
28/09:00am 31.8 33.6 19.5 48 8.2 W 9 20 5 11 1011.4 1007.5 0.0
28/08:30am 30.5 31.8 19.3 51 7.4 W 11 19 6 10 1011.6 1007.7 0.0
28/08:00am 29.9 30.3 19.1 52 7.1 WNW 15 20 8 11 1011.4 1007.5 0.0
28/07:30am 28.9 29.6 18.8 54 6.6 WNW 13 19 7 10 1011.0 1007.2 0.0
28/07:00am 27.6 29.4 19.5 61 5.4 WNW 9 17 5 9 1010.9 1007.1 0.0
28/06:30am 26.2 28.2 20.0 68 4.1 WNW 9 11 5 6 1010.6 1006.8 0.0
28/06:00am 25.9 28.9 20.1 70 3.8 NNW 4 6 2 3 1010.3 1006.4 0.0
28/05:30am 26.2 28.1 19.7 67 4.3 NW 9 11 5 6 1010.0 1006.1 0.0
28/05:00am 26.6 27.6 19.4 64 4.7 NW 13 19 7 10 1009.6 1005.7 0.0
28/04:30am 26.6 27.6 19.4 64 4.7 NW 13 19 7 10 1009.3 1005.4 0.0
28/04:00am 26.9 27.3 19.0 62 5.2 NW 15 19 8 10 1009.3 1005.4 0.0
28/03:30am 27.0 27.9 19.2 62 5.1 NNW 13 19 7 10 1009.3 1005.4 0.0
28/03:00am 27.3 28.0 18.9 60 5.5 NW 13 20 7 11 1009.2 1005.3 0.0
28/02:30am 27.5 27.5 19.0 59 5.6 WNW 17 24 9 13 1009.2 1005.3 0.0
28/02:00am 27.9 27.5 18.9 58 5.9 WNW 19 26 10 14 1009.1 1005.2 0.0
28/01:30am 28.1 28.2 19.1 58 5.9 WNW 17 24 9 13 1009.2 1005.3 0.0
28/01:00am 28.4 27.5 19.9 60 5.7 NW 24 32 13 17 1009.2 1005.3 0.0
28/12:30am 28.9 29.2 20.4 60 5.7 NW 19 26 10 14 1009.5 1005.6 0.0
28/12:00am 29.2 28.6 20.6 59 5.8 NW 24 32 13 17 1009.6 1005.7 0.0
 
Date/Time
WST
Temp
°C
App
Temp
°C
Dew
Point
Rel
Hum
%
Delta-T
°C
Wind Press
QNH
hPa
Press
MSL
hPa
Rain
since 9 am
mm
Dir
 
Spd
km/h
Gust
km/h
Spd
kts
Gust
kts
27/11:30pm 29.5 29.2 20.4 58 6.1 NW 22 30 12 16 1009.7 1005.8 0.0
27/11:00pm 30.1 30.9 20.6 56 6.4 NW 17 22 9 12 1009.8 1005.9 0.0
27/10:30pm 30.4 31.1 20.4 55 6.7 NW 17 20 9 11 1009.8 1005.9 0.0
27/10:00pm 31.2 32.0 19.8 50 7.6 NW 15 19 8 10 1009.8 1005.9 0.0
27/09:30pm 31.1 32.5 18.7 47 8.2 NNE 9 15 5 8 1009.7 1005.8 0.0
27/09:00pm 31.5 32.8 18.4 45 8.6 N 9 13 5 7 1009.4 1005.5 0.0
27/08:30pm 32.1 32.8 18.0 43 9.2 N 11 15 6 8 1008.9 1005.1 0.0
27/08:00pm 32.4 33.0 17.8 41 9.6 N 11 15 6 8 1008.3 1004.4 0.0
27/07:30pm 33.0 33.5 17.4 39 10.2 N 11 15 6 8 1007.9 1004.0 0.0
27/07:00pm 33.5 33.8 17.1 37 10.7 N 11 17 6 9 1007.3 1003.4 0.0
27/06:30pm 34.4 33.8 16.7 34 11.5 N 15 20 8 11 1006.6 1002.7 0.0
27/06:00pm 35.1 34.9 16.7 33 12.0 N 13 20 7 11 1006.3 1002.4 0.0
27/05:30pm 35.5 34.3 17.0 33 12.1 NE 19 28 10 15 1006.1 1002.2 0.0
27/05:00pm 35.8 35.3 17.0 32 12.3 N 15 22 8 12 1006.0 1002.1 0.0
27/04:30pm 36.1 34.8 16.9 32 12.5 NNE 19 28 10 15 1006.0 1002.1 0.0
27/04:00pm 35.5 35.6 15.6 30 12.8 NNE 9 24 5 13 1006.2 1002.3 0.0
27/03:30pm 35.7 33.7 15.6 30 12.9 NNE 20 32 11 17 1006.5 1002.6 0.0
27/03:00pm 35.2 34.3 16.9 33 11.9 NNE 17 26 9 14 1007.1 1003.2 0.0
27/02:30pm 35.4 35.4 17.2 34 11.9 NNE 13 24 7 13 1007.5 1003.6 0.0
27/02:00pm 33.9 35.1 18.2 39 10.4 N 9 20 5 11 1007.8 1003.9 0.0
27/01:30pm 33.6 34.0 18.1 39 10.2 NE 13 20 7 11 1008.3 1004.4 0.0
27/01:00pm 33.6 33.0 17.6 38 10.5 NE 17 24 9 13 1008.5 1004.6 0.0
27/12:30pm 33.3 34.3 18.6 41 9.7 NE 11 19 6 10 1008.6 1004.8 0.0
27/12:00pm 33.9 33.9 18.1 39 10.4 NNE 15 22 8 12 1009.1 1005.2 0.0
27/11:30am 33.6 34.6 17.7 38 10.4 N 9 17 5 9 1009.3 1005.4 0.0
27/11:00am 32.7 35.0 20.6 49 8.2 ESE 9 15 5 8 1009.8 1005.9 0.0
27/10:30am 32.3 35.0 20.2 48 8.2 SW 6 13 3 7 1009.8 1005.9 0.0
27/10:00am 30.7 33.4 20.3 53 7.0 SW 6 9 3 5 1010.2 1006.3 0.0
27/09:30am 30.0 33.0 20.8 57 6.2 SSW 6 11 3 6 1010.4 1006.5 0.0
27/09:00am 27.7 30.8 21.1 67 4.5 NNW 6 9 3 5 1010.7 1006.9 0.2
27/08:30am 26.0 28.9 20.7 72 3.5 SW 6 11 3 6 1010.8 1007.0 0.2
27/08:00am 25.1 27.9 20.8 77 2.9 W 7 11 4 6 1010.8 1007.0 0.2
27/07:30am 24.5 27.4 20.6 79 2.6 WSW 6 9 3 5 1010.6 1006.8 0.2
27/07:00am 23.1 26.3 21.3 90 1.2 NW 6 9 3 5 1010.8 1007.0 0.2
27/06:30am 22.9 25.2 21.3 91 1.1 N 11 15 6 8 1010.8 1007.0 0.2
27/06:00am 22.9 24.5 21.5 92 0.9 NNE 15 24 8 13 1010.7 1006.9 0.2
27/05:30am 22.7 23.5 21.7 94 0.7 NNE 20 28 11 15 1010.9 1007.1 0.2
27/05:00am 22.9 22.1 21.6 92 0.9 NNE 28 41 15 22 1010.9 1007.1 0.2
27/04:30am 24.3 26.2 21.4 84 1.9 E 13 33 7 18 1010.4 1006.5 0.2
27/04:00am 24.9 28.4 21.8 83 2.1 SW 6 9 3 5 1010.0 1006.1 0.2
27/03:30am 24.7 28.3 22.0 85 1.8 SSW 6 9 3 5 1009.7 1005.8 0.2
27/03:00am 24.8 27.6 22.3 86 1.7 SSW 11 15 6 8 1009.7 1005.8 0.2
27/02:30am 25.0 26.7 22.4 85 1.8 SSW 17 24 9 13 1009.9 1006.0 0.2
27/02:00am 27.0 30.1 22.9 78 2.8 SSW 11 30 6 16 1009.6 1005.7 0.2
27/01:30am 27.7 32.0 23.3 77 3.1 NW 6 7 3 4 1009.3 1005.4 0.2
27/01:00am 28.1 31.2 22.9 73 3.6 NNW 11 17 6 9 1009.2 1005.3 0.2
27/12:30am 29.1 32.1 22.0 65 4.9 NNW 9 15 5 8 1009.2 1005.3 0.0
27/12:00am 29.2 29.8 22.1 65 4.9 NW 22 28 12 15 1009.1 1005.2 0.0
 
Date/Time
WST
Temp
°C
App
Temp
°C
Dew
Point
Rel
Hum
%
Delta-T
°C
Wind Press
QNH
hPa
Press
MSL
hPa
Rain
since 9 am
mm
Dir
 
Spd
km/h
Gust
km/h
Spd
kts
Gust
kts
26/11:30pm 29.3 29.7 22.4 66 4.8 NNW 24 33 13 18 1009.5 1005.6 0.0
26/11:00pm 29.6 30.0 21.8 63 5.3 NNW 22 33 12 18 1009.5 1005.6 0.0
26/10:30pm 30.0 29.4 20.6 57 6.3 N 24 32 13 17 1009.4 1005.5 0.0
26/10:00pm 30.7 30.3 20.2 53 7.1 N 22 30 12 16 1009.6 1005.7 0.0
26/09:30pm 30.4 31.4 20.3 54 6.8 N 15 19 8 10 1009.5 1005.6 0.0
26/09:00pm 29.7 31.2 20.5 57 6.2 N 13 19 7 10 1009.1 1005.2 0.0
26/08:30pm 29.3 31.3 20.8 60 5.7 N 11 17 6 9 1008.2 1004.3 0.0
26/08:00pm 28.9 29.4 21.1 62 5.3 NNE 20 28 11 15 1007.6 1003.7 0.0
26/07:30pm 29.0 30.0 21.0 62 5.4 NNE 17 26 9 14 1007.0 1003.1 0.0
26/07:00pm 29.1 27.9 20.9 61 5.6 N 28 39 15 21 1006.8 1002.9 0.0
26/06:30pm 30.1 29.1 20.5 56 6.5 N 26 39 14 21 1006.8 1002.9 0.0
26/06:05pm 31.3 29.7 20.0 51 7.6 NNE 28 46 15 25 1006.8 1002.9 0.0
26/06:00pm 31.3 29.3 20.0 51 7.6 NNE 30 41 16 22 1006.5 1002.6 0.0
26/05:30pm 31.9 29.1 20.3 50 7.8 NNE 35 48 19 26 1006.2 1002.3 0.0
26/05:11pm 35.6 34.6 19.6 39 10.8 NNE 24 50 13 27 1005.8 1001.9 0.0
26/05:00pm 36.9 35.9 17.9 32 12.6 N 20 30 11 16 1005.9 1002.0 0.0
26/04:30pm 37.1 36.2 18.2 33 12.6 N 20 33 11 18 1005.9 1002.0 0.0
26/04:00pm 37.1 36.4 18.2 33 12.6 NNW 19 30 10 16 1005.9 1002.0 0.0
26/03:30pm 36.9 36.2 17.4 31 12.8 N 17 28 9 15 1006.2 1002.3 0.0
26/03:00pm 36.0 35.1 17.8 34 12.1 N 19 30 10 16 1006.4 1002.5 0.0
26/02:30pm 36.3 34.9 18.8 35 11.7 NNE 24 37 13 20 1006.9 1003.0 0.0
26/02:00pm 35.9 35.3 18.8 36 11.5 NNE 20 41 11 22 1007.5 1003.6 0.0
26/01:30pm 35.9 35.5 19.3 37 11.2 N 20 33 11 18 1007.9 1004.0 0.0
26/01:00pm 35.5 34.5 18.9 37 11.1 NNE 22 35 12 19 1008.4 1004.5 0.0
26/12:30pm 35.0 34.6 19.3 39 10.5 NNW 20 33 11 18 1008.8 1005.0 0.0
26/12:00pm 34.6 35.0 19.0 39 10.4 NNE 15 33 8 18 1009.4 1005.5 0.0
26/11:30am 34.2 34.9 19.7 42 9.8 N 15 28 8 15 1010.0 1006.1 0.0
26/11:00am 33.4 33.9 20.1 45 9.0 N 17 26 9 14 1010.3 1006.4 0.0
26/10:30am 33.1 34.3 20.0 46 8.8 N 13 22 7 12 1010.7 1006.9 0.0
26/10:00am 32.5 34.1 19.9 47 8.5 NNE 11 19 6 10 1011.0 1007.2 0.0
26/09:30am 31.8 33.0 19.9 49 8.0 NNW 13 22 7 12 1011.1 1007.3 0.0
26/09:00am 30.9 33.4 21.7 58 6.3 NNE 11 17 6 9 1011.7 1007.8 5.2
26/08:30am 29.5 32.3 21.6 62 5.4 NNE 9 13 5 7 1011.7 1007.8 5.2

Other Formats:

Comma delimited format used in spreadsheet applications
http://www.bom.gov.au/fwo/IDW60801/IDW60801.99736.axf

JavaScript Object Notation format (JSON) in row-major order
http://www.bom.gov.au/fwo/IDW60801/IDW60801.99736.json